sensor_id;sensor_type;location;lat;lon;timestamp;P1;durP1;ratioP1;P2;durP2;ratioP2
18929;SDS011;43305;52.186;5.598;2023-04-01T00:02:18;20.17;;;12.43;;
18929;SDS011;43305;52.186;5.598;2023-04-01T00:04:45;21.45;;;12.35;;
18929;SDS011;43305;52.186;5.598;2023-04-01T00:07:13;22.08;;;12.70;;
18929;SDS011;43305;52.186;5.598;2023-04-01T00:09:40;25.50;;;13.27;;
18929;SDS011;43305;52.186;5.598;2023-04-01T00:12:10;23.08;;;12.65;;
18929;SDS011;43305;52.186;5.598;2023-04-01T00:14:37;24.38;;;13.65;;
18929;SDS011;43305;52.186;5.598;2023-04-01T00:17:20;23.75;;;13.18;;
18929;SDS011;43305;52.186;5.598;2023-04-01T00:19:48;26.80;;;13.43;;
18929;SDS011;43305;52.186;5.598;2023-04-01T00:22:16;26.05;;;13.25;;
18929;SDS011;43305;52.186;5.598;2023-04-01T00:24:43;25.27;;;13.20;;
18929;SDS011;43305;52.186;5.598;2023-04-01T00:27:16;28.38;;;13.32;;
18929;SDS011;43305;52.186;5.598;2023-04-01T00:29:44;28.00;;;13.60;;
18929;SDS011;43305;52.186;5.598;2023-04-01T00:32:13;31.20;;;14.23;;
18929;SDS011;43305;52.186;5.598;2023-04-01T00:34:44;33.67;;;14.40;;
18929;SDS011;43305;52.186;5.598;2023-04-01T00:37:16;31.23;;;14.57;;
18929;SDS011;43305;52.186;5.598;2023-04-01T00:39:43;29.50;;;14.45;;
18929;SDS011;43305;52.186;5.598;2023-04-01T00:42:13;32.95;;;14.77;;
18929;SDS011;43305;52.186;5.598;2023-04-01T00:44:42;32.15;;;15.77;;
18929;SDS011;43305;52.186;5.598;2023-04-01T00:47:12;38.13;;;16.45;;
18929;SDS011;43305;52.186;5.598;2023-04-01T00:49:43;32.45;;;16.05;;
18929;SDS011;43305;52.186;5.598;2023-04-01T00:52:14;38.85;;;17.05;;
18929;SDS011;43305;52.186;5.598;2023-04-01T00:54:45;38.03;;;17.02;;
18929;SDS011;43305;52.186;5.598;2023-04-01T00:57:17;33.85;;;16.05;;
18929;SDS011;43305;52.186;5.598;2023-04-01T00:59:50;39.38;;;16.25;;
18929;SDS011;43305;52.186;5.598;2023-04-01T01:02:21;36.35;;;16.58;;
18929;SDS011;43305;52.186;5.598;2023-04-01T01:04:51;37.78;;;16.15;;
18929;SDS011;43305;52.186;5.598;2023-04-01T01:07:26;40.97;;;15.77;;
18929;SDS011;43305;52.186;5.598;2023-04-01T01:10:03;34.80;;;15.75;;
18929;SDS011;43305;52.186;5.598;2023-04-01T01:12:39;34.75;;;16.10;;
18929;SDS011;43305;52.186;5.598;2023-04-01T01:15:14;40.08;;;16.58;;
18929;SDS011;43305;52.186;5.598;2023-04-01T01:17:48;39.47;;;17.60;;
18929;SDS011;43305;52.186;5.598;2023-04-01T01:20:33;48.22;;;18.65;;
18929;SDS011;43305;52.186;5.598;2023-04-01T01:32:38;43.63;;;18.00;;
18929;SDS011;43305;52.186;5.598;2023-04-01T01:35:24;52.92;;;19.52;;
18929;SDS011;43305;52.186;5.598;2023-04-01T01:38:00;49.90;;;19.13;;
18929;SDS011;43305;52.186;5.598;2023-04-01T01:40:31;50.42;;;18.75;;
18929;SDS011;43305;52.186;5.598;2023-04-01T01:43:02;49.90;;;18.50;;
18929;SDS011;43305;52.186;5.598;2023-04-01T01:45:32;49.72;;;18.67;;
18929;SDS011;43305;52.186;5.598;2023-04-01T01:48:04;49.38;;;18.40;;
18929;SDS011;43305;52.186;5.598;2023-04-01T01:53:36;41.03;;;18.58;;
18929;SDS011;43305;52.186;5.598;2023-04-01T01:56:07;45.70;;;19.40;;
18929;SDS011;43305;52.186;5.598;2023-04-01T01:58:38;44.38;;;18.42;;
18929;SDS011;43305;52.186;5.598;2023-04-01T02:01:09;45.47;;;19.30;;
18929;SDS011;43305;52.186;5.598;2023-04-01T02:03:39;44.17;;;18.80;;
18929;SDS011;43305;52.186;5.598;2023-04-01T02:06:13;44.17;;;18.67;;
18929;SDS011;43305;52.186;5.598;2023-04-01T02:08:44;35.60;;;16.00;;
18929;SDS011;43305;52.186;5.598;2023-04-01T02:11:19;35.10;;;15.30;;
18929;SDS011;43305;52.186;5.598;2023-04-01T02:13:54;28.63;;;13.73;;
18929;SDS011;43305;52.186;5.598;2023-04-01T02:16:27;31.42;;;12.35;;
18929;SDS011;43305;52.186;5.598;2023-04-01T02:19:03;24.73;;;11.95;;
18929;SDS011;43305;52.186;5.598;2023-04-01T02:21:38;20.38;;;10.70;;
18929;SDS011;43305;52.186;5.598;2023-04-01T02:24:10;22.40;;;11.02;;
18929;SDS011;43305;52.186;5.598;2023-04-01T02:26:41;22.08;;;11.38;;
18929;SDS011;43305;52.186;5.598;2023-04-01T02:29:09;25.55;;;12.50;;
18929;SDS011;43305;52.186;5.598;2023-04-01T02:31:39;27.45;;;12.30;;
18929;SDS011;43305;52.186;5.598;2023-04-01T02:34:10;20.52;;;11.07;;
18929;SDS011;43305;52.186;5.598;2023-04-01T02:36:40;21.42;;;10.27;;
18929;SDS011;43305;52.186;5.598;2023-04-01T02:39:08;20.15;;;9.88;;
18929;SDS011;43305;52.186;5.598;2023-04-01T02:41:38;16.52;;;9.00;;
18929;SDS011;43305;52.186;5.598;2023-04-01T02:44:10;16.38;;;7.95;;
18929;SDS011;43305;52.186;5.598;2023-04-01T02:46:39;15.77;;;8.27;;
18929;SDS011;43305;52.186;5.598;2023-04-01T02:49:06;18.27;;;8.25;;
18929;SDS011;43305;52.186;5.598;2023-04-01T02:51:37;14.43;;;8.55;;
18929;SDS011;43305;52.186;5.598;2023-04-01T02:54:08;17.00;;;8.55;;
18929;SDS011;43305;52.186;5.598;2023-04-01T02:56:39;16.05;;;9.23;;
18929;SDS011;43305;52.186;5.598;2023-04-01T02:59:06;17.38;;;8.98;;
18929;SDS011;43305;52.186;5.598;2023-04-01T03:01:34;17.25;;;8.88;;
18929;SDS011;43305;52.186;5.598;2023-04-01T03:04:05;18.08;;;9.77;;
18929;SDS011;43305;52.186;5.598;2023-04-01T03:06:33;18.58;;;9.90;;
18929;SDS011;43305;52.186;5.598;2023-04-01T03:09:00;18.13;;;10.50;;
18929;SDS011;43305;52.186;5.598;2023-04-01T03:11:40;18.60;;;10.73;;
18929;SDS011;43305;52.186;5.598;2023-04-01T03:14:08;21.83;;;10.93;;
18929;SDS011;43305;52.186;5.598;2023-04-01T03:19:25;18.77;;;11.13;;
18929;SDS011;43305;52.186;5.598;2023-04-01T03:21:52;20.48;;;11.20;;
18929;SDS011;43305;52.186;5.598;2023-04-01T03:24:29;20.02;;;11.15;;
18929;SDS011;43305;52.186;5.598;2023-04-01T03:26:58;19.13;;;10.98;;
18929;SDS011;43305;52.186;5.598;2023-04-01T03:29:26;17.30;;;10.25;;
18929;SDS011;43305;52.186;5.598;2023-04-01T03:31:53;19.15;;;10.38;;
18929;SDS011;43305;52.186;5.598;2023-04-01T03:34:22;18.63;;;10.80;;
18929;SDS011;43305;52.186;5.598;2023-04-01T03:36:50;18.70;;;10.20;;
18929;SDS011;43305;52.186;5.598;2023-04-01T03:39:18;16.52;;;9.88;;
18929;SDS011;43305;52.186;5.598;2023-04-01T03:41:48;18.05;;;10.20;;
18929;SDS011;43305;52.186;5.598;2023-04-01T03:44:19;22.35;;;10.75;;
18929;SDS011;43305;52.186;5.598;2023-04-01T03:46:46;19.10;;;10.05;;
18929;SDS011;43305;52.186;5.598;2023-04-01T03:49:14;14.88;;;9.02;;
18929;SDS011;43305;52.186;5.598;2023-04-01T03:51:51;15.15;;;9.23;;
18929;SDS011;43305;52.186;5.598;2023-04-01T03:54:24;18.38;;;9.48;;
18929;SDS011;43305;52.186;5.598;2023-04-01T03:56:52;14.93;;;8.23;;
18929;SDS011;43305;52.186;5.598;2023-04-01T03:59:21;15.43;;;9.00;;
18929;SDS011;43305;52.186;5.598;2023-04-01T04:01:58;17.10;;;8.82;;
18929;SDS011;43305;52.186;5.598;2023-04-01T04:04:25;15.32;;;9.18;;
18929;SDS011;43305;52.186;5.598;2023-04-01T04:06:53;15.10;;;9.00;;
18929;SDS011;43305;52.186;5.598;2023-04-01T04:09:36;18.80;;;9.32;;
18929;SDS011;43305;52.186;5.598;2023-04-01T04:12:12;17.30;;;9.38;;
18929;SDS011;43305;52.186;5.598;2023-04-01T04:14:46;17.33;;;9.60;;
18929;SDS011;43305;52.186;5.598;2023-04-01T04:17:14;22.25;;;10.38;;
18929;SDS011;43305;52.186;5.598;2023-04-01T04:19:44;19.25;;;10.45;;
18929;SDS011;43305;52.186;5.598;2023-04-01T04:22:14;20.52;;;10.23;;
18929;SDS011;43305;52.186;5.598;2023-04-01T04:24:42;17.90;;;10.38;;
18929;SDS011;43305;52.186;5.598;2023-04-01T04:27:10;21.55;;;10.50;;
18929;SDS011;43305;52.186;5.598;2023-04-01T04:29:38;21.77;;;10.55;;
18929;SDS011;43305;52.186;5.598;2023-04-01T04:32:07;23.05;;;11.73;;
18929;SDS011;43305;52.186;5.598;2023-04-01T04:34:38;25.83;;;11.38;;
18929;SDS011;43305;52.186;5.598;2023-04-01T04:37:12;25.63;;;11.15;;
18929;SDS011;43305;52.186;5.598;2023-04-01T04:39:46;24.10;;;11.27;;
18929;SDS011;43305;52.186;5.598;2023-04-01T04:42:28;30.13;;;11.95;;
18929;SDS011;43305;52.186;5.598;2023-04-01T04:45:09;27.13;;;10.80;;
18929;SDS011;43305;52.186;5.598;2023-04-01T04:48:00;28.08;;;10.85;;
18929;SDS011;43305;52.186;5.598;2023-04-01T04:50:43;30.90;;;12.38;;
18929;SDS011;43305;52.186;5.598;2023-04-01T04:53:43;27.63;;;10.95;;
18929;SDS011;43305;52.186;5.598;2023-04-01T04:56:25;34.00;;;12.13;;
18929;SDS011;43305;52.186;5.598;2023-04-01T04:58:58;38.13;;;12.48;;
18929;SDS011;43305;52.186;5.598;2023-04-01T05:01:32;31.15;;;11.18;;
18929;SDS011;43305;52.186;5.598;2023-04-01T05:04:15;30.67;;;11.63;;
18929;SDS011;43305;52.186;5.598;2023-04-01T05:06:47;30.27;;;11.30;;
18929;SDS011;43305;52.186;5.598;2023-04-01T05:09:25;34.47;;;11.45;;
18929;SDS011;43305;52.186;5.598;2023-04-01T05:11:54;39.28;;;12.18;;
18929;SDS011;43305;52.186;5.598;2023-04-01T05:14:31;36.13;;;12.65;;
18929;SDS011;43305;52.186;5.598;2023-04-01T05:17:01;32.70;;;11.95;;
18929;SDS011;43305;52.186;5.598;2023-04-01T05:19:53;36.15;;;12.82;;
18929;SDS011;43305;52.186;5.598;2023-04-01T05:22:23;32.85;;;11.93;;
18929;SDS011;43305;52.186;5.598;2023-04-01T05:24:51;34.08;;;11.82;;
18929;SDS011;43305;52.186;5.598;2023-04-01T05:27:28;31.58;;;11.63;;
18929;SDS011;43305;52.186;5.598;2023-04-01T05:29:55;34.80;;;12.45;;
18929;SDS011;43305;52.186;5.598;2023-04-01T05:32:25;30.15;;;12.60;;
18929;SDS011;43305;52.186;5.598;2023-04-01T05:34:54;31.00;;;11.60;;
18929;SDS011;43305;52.186;5.598;2023-04-01T05:37:21;34.65;;;12.98;;
18929;SDS011;43305;52.186;5.598;2023-04-01T05:39:49;31.63;;;11.57;;
18929;SDS011;43305;52.186;5.598;2023-04-01T05:42:19;34.45;;;12.95;;
18929;SDS011;43305;52.186;5.598;2023-04-01T05:44:47;40.33;;;13.70;;
18929;SDS011;43305;52.186;5.598;2023-04-01T05:47:14;37.75;;;11.95;;
18929;SDS011;43305;52.186;5.598;2023-04-01T05:49:43;38.13;;;12.00;;
18929;SDS011;43305;52.186;5.598;2023-04-01T05:52:15;36.60;;;12.05;;
18929;SDS011;43305;52.186;5.598;2023-04-01T05:54:42;41.40;;;13.13;;
18929;SDS011;43305;52.186;5.598;2023-04-01T05:57:09;42.20;;;13.18;;
18929;SDS011;43305;52.186;5.598;2023-04-01T05:59:36;39.00;;;13.60;;
18929;SDS011;43305;52.186;5.598;2023-04-01T06:02:20;35.70;;;12.23;;
18929;SDS011;43305;52.186;5.598;2023-04-01T06:05:00;33.17;;;13.13;;
18929;SDS011;43305;52.186;5.598;2023-04-01T06:07:41;29.15;;;11.18;;
18929;SDS011;43305;52.186;5.598;2023-04-01T06:10:12;34.95;;;12.15;;
18929;SDS011;43305;52.186;5.598;2023-04-01T06:15:35;24.33;;;10.20;;
18929;SDS011;43305;52.186;5.598;2023-04-01T06:21:21;31.77;;;13.00;;
18929;SDS011;43305;52.186;5.598;2023-04-01T06:27:07;18.05;;;7.35;;
18929;SDS011;43305;52.186;5.598;2023-04-01T06:29:49;15.10;;;6.80;;
18929;SDS011;43305;52.186;5.598;2023-04-01T06:35:27;13.75;;;6.47;;
18929;SDS011;43305;52.186;5.598;2023-04-01T06:38:16;10.07;;;5.30;;
18929;SDS011;43305;52.186;5.598;2023-04-01T06:43:54;10.13;;;5.03;;
18929;SDS011;43305;52.186;5.598;2023-04-01T06:46:33;14.98;;;5.97;;
18929;SDS011;43305;52.186;5.598;2023-04-01T06:49:13;12.80;;;5.43;;
18929;SDS011;43305;52.186;5.598;2023-04-01T06:51:59;13.63;;;6.20;;
18929;SDS011;43305;52.186;5.598;2023-04-01T06:54:42;16.50;;;5.82;;
18929;SDS011;43305;52.186;5.598;2023-04-01T06:57:18;11.43;;;4.82;;
18929;SDS011;43305;52.186;5.598;2023-04-01T06:59:50;13.07;;;4.97;;
18929;SDS011;43305;52.186;5.598;2023-04-01T07:02:25;12.82;;;7.47;;
18929;SDS011;43305;52.186;5.598;2023-04-01T07:04:59;9.55;;;4.82;;
18929;SDS011;43305;52.186;5.598;2023-04-01T07:07:30;15.77;;;9.10;;
18929;SDS011;43305;52.186;5.598;2023-04-01T07:10:05;13.15;;;5.95;;
18929;SDS011;43305;52.186;5.598;2023-04-01T07:12:43;10.93;;;5.13;;
18929;SDS011;43305;52.186;5.598;2023-04-01T07:15:19;10.50;;;4.68;;
18929;SDS011;43305;52.186;5.598;2023-04-01T07:17:52;7.60;;;3.40;;
18929;SDS011;43305;52.186;5.598;2023-04-01T07:20:22;5.10;;;2.65;;
18929;SDS011;43305;52.186;5.598;2023-04-01T07:22:53;5.13;;;1.95;;
18929;SDS011;43305;52.186;5.598;2023-04-01T07:25:23;4.38;;;1.92;;
18929;SDS011;43305;52.186;5.598;2023-04-01T07:27:53;3.58;;;1.33;;
18929;SDS011;43305;52.186;5.598;2023-04-01T07:30:26;2.30;;;1.40;;
18929;SDS011;43305;52.186;5.598;2023-04-01T07:33:01;2.65;;;1.90;;
18929;SDS011;43305;52.186;5.598;2023-04-01T07:35:35;2.55;;;1.50;;
18929;SDS011;43305;52.186;5.598;2023-04-01T07:38:12;2.55;;;1.50;;
18929;SDS011;43305;52.186;5.598;2023-04-01T07:40:49;3.45;;;1.75;;
18929;SDS011;43305;52.186;5.598;2023-04-01T07:43:35;2.75;;;1.60;;
18929;SDS011;43305;52.186;5.598;2023-04-01T07:46:33;3.28;;;1.80;;
18929;SDS011;43305;52.186;5.598;2023-04-01T07:49:21;3.15;;;2.00;;
18929;SDS011;43305;52.186;5.598;2023-04-01T07:51:53;4.60;;;2.22;;
18929;SDS011;43305;52.186;5.598;2023-04-01T07:54:44;3.28;;;1.90;;
18929;SDS011;43305;52.186;5.598;2023-04-01T07:57:19;4.20;;;2.45;;
18929;SDS011;43305;52.186;5.598;2023-04-01T07:59:53;3.22;;;2.00;;
18929;SDS011;43305;52.186;5.598;2023-04-01T08:02:29;2.92;;;1.85;;
18929;SDS011;43305;52.186;5.598;2023-04-01T08:05:08;2.97;;;1.80;;
18929;SDS011;43305;52.186;5.598;2023-04-01T08:07:45;3.58;;;2.10;;
18929;SDS011;43305;52.186;5.598;2023-04-01T08:10:19;3.15;;;1.95;;
18929;SDS011;43305;52.186;5.598;2023-04-01T08:12:52;3.53;;;2.10;;
18929;SDS011;43305;52.186;5.598;2023-04-01T08:15:31;5.15;;;2.30;;
18929;SDS011;43305;52.186;5.598;2023-04-01T08:18:06;3.90;;;2.55;;
18929;SDS011;43305;52.186;5.598;2023-04-01T08:20:41;3.90;;;2.20;;
18929;SDS011;43305;52.186;5.598;2023-04-01T08:23:14;4.10;;;2.42;;
18929;SDS011;43305;52.186;5.598;2023-04-01T08:25:45;3.95;;;2.20;;
18929;SDS011;43305;52.186;5.598;2023-04-01T08:28:17;5.20;;;2.47;;
18929;SDS011;43305;52.186;5.598;2023-04-01T08:30:50;4.63;;;2.50;;
18929;SDS011;43305;52.186;5.598;2023-04-01T08:33:21;3.38;;;2.05;;
18929;SDS011;43305;52.186;5.598;2023-04-01T08:35:53;2.92;;;1.73;;
18929;SDS011;43305;52.186;5.598;2023-04-01T08:38:24;3.30;;;1.90;;
18929;SDS011;43305;52.186;5.598;2023-04-01T08:40:58;4.03;;;2.30;;
18929;SDS011;43305;52.186;5.598;2023-04-01T08:49:31;4.53;;;2.55;;
18929;SDS011;43305;52.186;5.598;2023-04-01T08:55:31;5.10;;;2.92;;
18929;SDS011;43305;52.186;5.598;2023-04-01T08:58:27;4.75;;;2.92;;
18929;SDS011;43305;52.186;5.598;2023-04-01T09:01:22;5.95;;;3.35;;
18929;SDS011;43305;52.186;5.598;2023-04-01T09:04:08;6.30;;;3.20;;
18929;SDS011;43305;52.186;5.598;2023-04-01T09:06:55;5.70;;;3.35;;
18929;SDS011;43305;52.186;5.598;2023-04-01T09:09:45;6.47;;;3.90;;
18929;SDS011;43305;52.186;5.598;2023-04-01T09:12:30;5.20;;;3.60;;
18929;SDS011;43305;52.186;5.598;2023-04-01T09:15:34;8.85;;;4.50;;
18929;SDS011;43305;52.186;5.598;2023-04-01T09:24:44;8.57;;;5.05;;
18929;SDS011;43305;52.186;5.598;2023-04-01T09:27:41;8.43;;;5.50;;
18929;SDS011;43305;52.186;5.598;2023-04-01T09:30:24;8.65;;;5.60;;
18929;SDS011;43305;52.186;5.598;2023-04-01T09:33:21;8.35;;;5.45;;
18929;SDS011;43305;52.186;5.598;2023-04-01T09:36:24;8.63;;;5.75;;
18929;SDS011;43305;52.186;5.598;2023-04-01T09:39:22;8.90;;;5.82;;
18929;SDS011;43305;52.186;5.598;2023-04-01T09:45:04;9.18;;;6.15;;
18929;SDS011;43305;52.186;5.598;2023-04-01T09:47:48;9.65;;;6.25;;
18929;SDS011;43305;52.186;5.598;2023-04-01T09:50:29;11.35;;;6.32;;
18929;SDS011;43305;52.186;5.598;2023-04-01T09:53:11;8.13;;;5.80;;
18929;SDS011;43305;52.186;5.598;2023-04-01T09:56:01;7.68;;;5.72;;
18929;SDS011;43305;52.186;5.598;2023-04-01T10:05:15;9.07;;;5.43;;
18929;SDS011;43305;52.186;5.598;2023-04-01T10:11:23;7.22;;;4.80;;
18929;SDS011;43305;52.186;5.598;2023-04-01T10:14:25;5.72;;;4.13;;
18929;SDS011;43305;52.186;5.598;2023-04-01T10:20:21;6.32;;;4.40;;
18929;SDS011;43305;52.186;5.598;2023-04-01T10:23:21;6.22;;;4.10;;
18929;SDS011;43305;52.186;5.598;2023-04-01T10:29:11;5.93;;;4.32;;
18929;SDS011;43305;52.186;5.598;2023-04-01T10:32:24;6.00;;;4.18;;
18929;SDS011;43305;52.186;5.598;2023-04-01T10:35:27;5.80;;;3.92;;
18929;SDS011;43305;52.186;5.598;2023-04-01T10:38:31;6.60;;;4.60;;
18929;SDS011;43305;52.186;5.598;2023-04-01T10:41:31;6.30;;;3.95;;
18929;SDS011;43305;52.186;5.598;2023-04-01T10:47:47;6.15;;;3.63;;
18929;SDS011;43305;52.186;5.598;2023-04-01T10:50:43;6.25;;;3.75;;
18929;SDS011;43305;52.186;5.598;2023-04-01T10:53:46;6.03;;;4.05;;
18929;SDS011;43305;52.186;5.598;2023-04-01T10:56:36;4.70;;;3.47;;
18929;SDS011;43305;52.186;5.598;2023-04-01T10:59:14;5.35;;;3.33;;
18929;SDS011;43305;52.186;5.598;2023-04-01T11:02:02;4.38;;;2.67;;
18929;SDS011;43305;52.186;5.598;2023-04-01T11:11:29;2.72;;;2.20;;
18929;SDS011;43305;52.186;5.598;2023-04-01T11:14:44;3.03;;;2.00;;
18929;SDS011;43305;52.186;5.598;2023-04-01T11:18:09;3.15;;;2.47;;
18929;SDS011;43305;52.186;5.598;2023-04-01T11:21:21;3.85;;;2.38;;
18929;SDS011;43305;52.186;5.598;2023-04-01T11:24:12;4.18;;;2.83;;
18929;SDS011;43305;52.186;5.598;2023-04-01T11:27:03;3.65;;;3.00;;
18929;SDS011;43305;52.186;5.598;2023-04-01T11:29:42;4.38;;;3.00;;
18929;SDS011;43305;52.186;5.598;2023-04-01T11:32:20;4.43;;;3.05;;
18929;SDS011;43305;52.186;5.598;2023-04-01T11:35:15;5.63;;;3.17;;
18929;SDS011;43305;52.186;5.598;2023-04-01T11:37:55;4.85;;;3.50;;
18929;SDS011;43305;52.186;5.598;2023-04-01T11:40:31;4.88;;;3.75;;
18929;SDS011;43305;52.186;5.598;2023-04-01T11:43:06;5.20;;;3.70;;
18929;SDS011;43305;52.186;5.598;2023-04-01T11:45:45;4.68;;;3.42;;
18929;SDS011;43305;52.186;5.598;2023-04-01T11:51:20;5.25;;;3.78;;
18929;SDS011;43305;52.186;5.598;2023-04-01T11:54:07;5.03;;;3.90;;
18929;SDS011;43305;52.186;5.598;2023-04-01T11:56:53;4.68;;;3.60;;
18929;SDS011;43305;52.186;5.598;2023-04-01T11:59:42;6.32;;;3.95;;
18929;SDS011;43305;52.186;5.598;2023-04-01T12:02:24;5.95;;;4.30;;
18929;SDS011;43305;52.186;5.598;2023-04-01T12:05:18;5.63;;;4.00;;
18929;SDS011;43305;52.186;5.598;2023-04-01T12:08:02;5.75;;;4.25;;
18929;SDS011;43305;52.186;5.598;2023-04-01T12:10:38;5.57;;;3.85;;
18929;SDS011;43305;52.186;5.598;2023-04-01T12:13:09;6.70;;;4.18;;
18929;SDS011;43305;52.186;5.598;2023-04-01T12:15:59;8.48;;;5.20;;
18929;SDS011;43305;52.186;5.598;2023-04-01T12:18:38;6.68;;;4.72;;
18929;SDS011;43305;52.186;5.598;2023-04-01T12:21:13;7.20;;;4.45;;
18929;SDS011;43305;52.186;5.598;2023-04-01T12:24:01;5.72;;;4.32;;
18929;SDS011;43305;52.186;5.598;2023-04-01T12:29:53;4.97;;;3.40;;
18929;SDS011;43305;52.186;5.598;2023-04-01T12:32:44;5.00;;;3.50;;
18929;SDS011;43305;52.186;5.598;2023-04-01T12:35:23;5.82;;;3.88;;
18929;SDS011;43305;52.186;5.598;2023-04-01T12:37:55;5.03;;;3.70;;
18929;SDS011;43305;52.186;5.598;2023-04-01T12:43:50;5.20;;;3.53;;
18929;SDS011;43305;52.186;5.598;2023-04-01T12:46:41;4.78;;;3.42;;
18929;SDS011;43305;52.186;5.598;2023-04-01T12:49:29;4.93;;;3.45;;
18929;SDS011;43305;52.186;5.598;2023-04-01T12:52:09;4.82;;;3.40;;
18929;SDS011;43305;52.186;5.598;2023-04-01T12:54:48;4.40;;;3.38;;
18929;SDS011;43305;52.186;5.598;2023-04-01T13:00:43;4.97;;;3.47;;
18929;SDS011;43305;52.186;5.598;2023-04-01T13:03:30;5.85;;;3.50;;
18929;SDS011;43305;52.186;5.598;2023-04-01T13:06:20;6.45;;;3.70;;
18929;SDS011;43305;52.186;5.598;2023-04-01T13:08:55;4.60;;;3.30;;
18929;SDS011;43305;52.186;5.598;2023-04-01T13:11:33;4.85;;;3.60;;
18929;SDS011;43305;52.186;5.598;2023-04-01T13:14:15;6.30;;;4.10;;
18929;SDS011;43305;52.186;5.598;2023-04-01T13:16:52;6.50;;;4.00;;
18929;SDS011;43305;52.186;5.598;2023-04-01T13:19:25;5.25;;;3.83;;
18929;SDS011;43305;52.186;5.598;2023-04-01T13:22:01;5.30;;;3.97;;
18929;SDS011;43305;52.186;5.598;2023-04-01T13:24:38;6.43;;;4.30;;
18929;SDS011;43305;52.186;5.598;2023-04-01T13:27:14;7.75;;;5.00;;
18929;SDS011;43305;52.186;5.598;2023-04-01T13:29:55;8.43;;;5.78;;
18929;SDS011;43305;52.186;5.598;2023-04-01T13:32:29;9.75;;;5.80;;
18929;SDS011;43305;52.186;5.598;2023-04-01T13:35:08;11.13;;;6.82;;
18929;SDS011;43305;52.186;5.598;2023-04-01T13:37:57;10.00;;;7.20;;
18929;SDS011;43305;52.186;5.598;2023-04-01T13:40:51;11.40;;;6.47;;
18929;SDS011;43305;52.186;5.598;2023-04-01T13:43:28;7.90;;;5.22;;
18929;SDS011;43305;52.186;5.598;2023-04-01T13:46:20;6.35;;;4.43;;
18929;SDS011;43305;52.186;5.598;2023-04-01T13:52:03;6.88;;;4.90;;
18929;SDS011;43305;52.186;5.598;2023-04-01T13:55:08;5.80;;;4.28;;
18929;SDS011;43305;52.186;5.598;2023-04-01T13:58:13;9.25;;;6.00;;
18929;SDS011;43305;52.186;5.598;2023-04-01T14:00:55;8.30;;;5.90;;
18929;SDS011;43305;52.186;5.598;2023-04-01T14:03:40;7.18;;;4.47;;
18929;SDS011;43305;52.186;5.598;2023-04-01T14:06:29;7.55;;;4.90;;
18929;SDS011;43305;52.186;5.598;2023-04-01T14:12:03;6.68;;;4.43;;
18929;SDS011;43305;52.186;5.598;2023-04-01T14:14:39;6.18;;;4.32;;
18929;SDS011;43305;52.186;5.598;2023-04-01T14:17:19;8.95;;;4.70;;
18929;SDS011;43305;52.186;5.598;2023-04-01T14:26:27;7.80;;;5.07;;
18929;SDS011;43305;52.186;5.598;2023-04-01T14:29:16;6.10;;;4.57;;
18929;SDS011;43305;52.186;5.598;2023-04-01T14:31:54;6.55;;;4.72;;
18929;SDS011;43305;52.186;5.598;2023-04-01T14:34:39;6.45;;;4.50;;
18929;SDS011;43305;52.186;5.598;2023-04-01T14:37:23;6.05;;;4.47;;
18929;SDS011;43305;52.186;5.598;2023-04-01T14:43:00;6.50;;;4.97;;
18929;SDS011;43305;52.186;5.598;2023-04-01T14:49:04;6.03;;;4.72;;
18929;SDS011;43305;52.186;5.598;2023-04-01T14:51:42;13.60;;;8.40;;
18929;SDS011;43305;52.186;5.598;2023-04-01T14:54:12;15.90;;;10.52;;
18929;SDS011;43305;52.186;5.598;2023-04-01T14:56:48;10.30;;;7.53;;
18929;SDS011;43305;52.186;5.598;2023-04-01T14:59:25;14.30;;;10.50;;
18929;SDS011;43305;52.186;5.598;2023-04-01T15:01:57;9.55;;;6.47;;
18929;SDS011;43305;52.186;5.598;2023-04-01T15:04:35;10.50;;;7.45;;
18929;SDS011;43305;52.186;5.598;2023-04-01T15:07:45;7.03;;;5.25;;
18929;SDS011;43305;52.186;5.598;2023-04-01T15:10:43;5.93;;;4.90;;
18929;SDS011;43305;52.186;5.598;2023-04-01T15:13:23;5.25;;;4.22;;
18929;SDS011;43305;52.186;5.598;2023-04-01T15:16:01;7.75;;;5.72;;
18929;SDS011;43305;52.186;5.598;2023-04-01T15:18:44;4.43;;;3.45;;
18929;SDS011;43305;52.186;5.598;2023-04-01T15:21:23;4.25;;;3.55;;
18929;SDS011;43305;52.186;5.598;2023-04-01T15:24:07;7.38;;;5.65;;
18929;SDS011;43305;52.186;5.598;2023-04-01T15:26:53;4.15;;;3.28;;
18929;SDS011;43305;52.186;5.598;2023-04-01T15:29:43;6.15;;;3.95;;
18929;SDS011;43305;52.186;5.598;2023-04-01T15:32:27;6.78;;;4.85;;
18929;SDS011;43305;52.186;5.598;2023-04-01T15:35:12;4.38;;;3.50;;
18929;SDS011;43305;52.186;5.598;2023-04-01T15:37:49;4.88;;;3.88;;
18929;SDS011;43305;52.186;5.598;2023-04-01T15:40:22;5.30;;;3.80;;
18929;SDS011;43305;52.186;5.598;2023-04-01T15:42:55;7.13;;;5.07;;
18929;SDS011;43305;52.186;5.598;2023-04-01T15:45:41;5.30;;;4.00;;
18929;SDS011;43305;52.186;5.598;2023-04-01T15:51:13;5.60;;;4.35;;
18929;SDS011;43305;52.186;5.598;2023-04-01T15:53:58;5.20;;;4.00;;
18929;SDS011;43305;52.186;5.598;2023-04-01T15:56:52;5.22;;;3.72;;
18929;SDS011;43305;52.186;5.598;2023-04-01T15:59:41;5.07;;;4.18;;
18929;SDS011;43305;52.186;5.598;2023-04-01T16:02:21;5.72;;;4.63;;
18929;SDS011;43305;52.186;5.598;2023-04-01T16:04:58;5.88;;;4.65;;
18929;SDS011;43305;52.186;5.598;2023-04-01T16:07:40;5.80;;;4.57;;
18929;SDS011;43305;52.186;5.598;2023-04-01T16:10:19;5.68;;;4.78;;
18929;SDS011;43305;52.186;5.598;2023-04-01T16:12:58;8.98;;;5.70;;
18929;SDS011;43305;52.186;5.598;2023-04-01T16:15:42;5.57;;;4.45;;
18929;SDS011;43305;52.186;5.598;2023-04-01T16:18:23;5.60;;;4.00;;
18929;SDS011;43305;52.186;5.598;2023-04-01T16:21:12;6.05;;;4.60;;
18929;SDS011;43305;52.186;5.598;2023-04-01T16:23:49;6.82;;;5.43;;
18929;SDS011;43305;52.186;5.598;2023-04-01T16:26:20;7.65;;;5.40;;
18929;SDS011;43305;52.186;5.598;2023-04-01T16:28:53;7.13;;;5.38;;
18929;SDS011;43305;52.186;5.598;2023-04-01T16:31:31;6.38;;;5.10;;
18929;SDS011;43305;52.186;5.598;2023-04-01T16:34:04;9.90;;;4.93;;
18929;SDS011;43305;52.186;5.598;2023-04-01T16:36:44;6.07;;;4.68;;
18929;SDS011;43305;52.186;5.598;2023-04-01T16:39:20;7.53;;;4.70;;
18929;SDS011;43305;52.186;5.598;2023-04-01T16:41:58;6.15;;;4.72;;
18929;SDS011;43305;52.186;5.598;2023-04-01T16:44:44;9.60;;;5.88;;
18929;SDS011;43305;52.186;5.598;2023-04-01T16:47:20;7.72;;;5.95;;
18929;SDS011;43305;52.186;5.598;2023-04-01T16:49:54;6.93;;;5.20;;
18929;SDS011;43305;52.186;5.598;2023-04-01T16:52:31;5.88;;;4.82;;
18929;SDS011;43305;52.186;5.598;2023-04-01T16:55:14;5.72;;;4.47;;
18929;SDS011;43305;52.186;5.598;2023-04-01T16:57:46;5.93;;;4.93;;
18929;SDS011;43305;52.186;5.598;2023-04-01T17:00:20;6.78;;;5.30;;
18929;SDS011;43305;52.186;5.598;2023-04-01T17:02:54;6.80;;;5.43;;
18929;SDS011;43305;52.186;5.598;2023-04-01T17:05:37;6.80;;;5.18;;
18929;SDS011;43305;52.186;5.598;2023-04-01T17:08:17;6.57;;;5.30;;
18929;SDS011;43305;52.186;5.598;2023-04-01T17:10:56;11.18;;;8.48;;
18929;SDS011;43305;52.186;5.598;2023-04-01T17:13:32;8.70;;;6.55;;
18929;SDS011;43305;52.186;5.598;2023-04-01T17:16:07;9.40;;;7.28;;
18929;SDS011;43305;52.186;5.598;2023-04-01T17:18:55;8.27;;;6.97;;
18929;SDS011;43305;52.186;5.598;2023-04-01T17:21:43;8.80;;;6.05;;
18929;SDS011;43305;52.186;5.598;2023-04-01T17:24:31;10.05;;;6.80;;
18929;SDS011;43305;52.186;5.598;2023-04-01T17:27:20;9.55;;;6.95;;
18929;SDS011;43305;52.186;5.598;2023-04-01T17:30:11;8.43;;;6.38;;
18929;SDS011;43305;52.186;5.598;2023-04-01T17:32:51;7.18;;;5.57;;
18929;SDS011;43305;52.186;5.598;2023-04-01T17:35:43;6.85;;;5.13;;